Enter your " Place, State", US Zip Code or ICAO:  
Portland, Oregon (97201)  Lat: 45.52N, Lon: 122.67W
Wx Zone: ORZ006 ICAO Used: KPDX
Current Conditions
Updated: UNKNOWN
Sun & Moon Information:
Fair
Fair
Temp: N/A
Humidity: N/A
Wind Speed: N/A
Barometer: N/A
Dewpoint: N/A
Heat Index: N/A
Wind Chill: N/A
Civil Twilight: 5:26 AM PDT Moon Phase:
Waxing Crescent Moon
Waxing Crescent Moon
Sunrise: 5:58 AM PDT
Sunset: 8:16 PM PDT
Civil Twilight: 8:48 PM PDT
Forecast for Portland, OR:
(Forecast based on TAF for )
0500 AM PDT MON MAY 01 2017
  
MORNING AFTERNOON EVENING OVERNIGHT
Mostly Cloudy Mostly Cloudy Mostly Cloudy Mostly Cloudy
Mostly
Cloudy
Mostly
Cloudy
Mostly
Cloudy
Mostly
Cloudy
TAF based forecast:
Dated: 0500 AM PDT MON MAY 01 2017
Morning...Turning mostly cloudy winds variable in direction at 3 mph.
Afternoon...Mostly cloudy winds variable in direction at 3 mph.
Evening...Mostly cloudy winds variable in direction at 3 mph.
Overnight...Mostly cloudy winds variable in direction at 3 mph.
Original Encoded TAF:
Dated: 0500 AM PDT MON MAY 01 2017
2017/04/30 21:57
TAF 
      AMD KPDX 302052Z 3021/0118 31006KT P6SM SCT050 
     FM011200 VRB03KT P6SM SCT020 BKN050